Aitkin, Minnesota
Current Conditions -  °F | °C
As of 8:54 PM on Monday 22 Dec 2014 (Local Time) from KAIT Reporting Station
Unknown Precip Unknown Precip  
Wind Chill: 32°   Ceiling: 700
Heat Index: 36°   Visibility: 3mi
Dew Point: 30°   Wind: 5mph
Humidity: 81%   Direction: 90°E
Pressure: 29.66"   Gusts: NA
Location:  46.53°N, 93.71°W
Report Text: KAIT 230254Z AUTO 09004KT 3SM UP OVC007 02/M01 A2966 RMK AO2
Loading
Personal Weather Stations






























Interactive Weather Map New forecast layout! Learn more

10-Day Weather Forecast

Advertisements
Track Severe Weather on mobile